sensor_id;sensor_type;location;lat;lon;timestamp;temperature;humidity
67273;DHT22;54190;49.770;9.250;2023-03-14T00:00:37;9.80;99.90
67273;DHT22;54190;49.770;9.250;2023-03-14T00:03:03;9.80;99.90
67273;DHT22;54190;49.770;9.250;2023-03-14T00:05:28;9.90;99.90
67273;DHT22;54190;49.770;9.250;2023-03-14T00:07:54;9.90;99.90
67273;DHT22;54190;49.770;9.250;2023-03-14T00:10:20;9.90;99.90
67273;DHT22;54190;49.770;9.250;2023-03-14T00:12:46;9.90;99.90
67273;DHT22;54190;49.770;9.250;2023-03-14T00:15:12;9.90;99.90
67273;DHT22;54190;49.770;9.250;2023-03-14T00:17:38;9.90;99.90
67273;DHT22;54190;49.770;9.250;2023-03-14T00:20:06;9.90;99.90
67273;DHT22;54190;49.770;9.250;2023-03-14T00:22:37;10.00;99.90
67273;DHT22;54190;49.770;9.250;2023-03-14T00:25:04;9.90;99.90
67273;DHT22;54190;49.770;9.250;2023-03-14T00:27:31;9.90;99.90
67273;DHT22;54190;49.770;9.250;2023-03-14T00:29:57;9.90;99.90
67273;DHT22;54190;49.770;9.250;2023-03-14T00:32:23;9.90;99.90
67273;DHT22;54190;49.770;9.250;2023-03-14T00:34:49;9.90;99.90
67273;DHT22;54190;49.770;9.250;2023-03-14T00:37:14;9.90;99.90
67273;DHT22;54190;49.770;9.250;2023-03-14T00:39:40;10.00;99.90
67273;DHT22;54190;49.770;9.250;2023-03-14T00:42:06;10.00;99.90
67273;DHT22;54190;49.770;9.250;2023-03-14T00:44:31;10.00;99.90
67273;DHT22;54190;49.770;9.250;2023-03-14T00:46:57;10.00;99.90
67273;DHT22;54190;49.770;9.250;2023-03-14T00:49:24;10.00;99.90
67273;DHT22;54190;49.770;9.250;2023-03-14T00:51:50;10.00;99.90
67273;DHT22;54190;49.770;9.250;2023-03-14T00:54:17;10.00;99.90
67273;DHT22;54190;49.770;9.250;2023-03-14T00:56:43;10.00;99.90
67273;DHT22;54190;49.770;9.250;2023-03-14T00:59:08;10.00;99.90
67273;DHT22;54190;49.770;9.250;2023-03-14T01:01:34;10.00;99.90
67273;DHT22;54190;49.770;9.250;2023-03-14T01:04:00;9.90;99.90
67273;DHT22;54190;49.770;9.250;2023-03-14T01:06:27;9.90;99.90
67273;DHT22;54190;49.770;9.250;2023-03-14T01:08:54;10.00;99.90
67273;DHT22;54190;49.770;9.250;2023-03-14T01:11:32;10.00;99.90
67273;DHT22;54190;49.770;9.250;2023-03-14T01:13:58;10.00;99.90
67273;DHT22;54190;49.770;9.250;2023-03-14T01:16:26;10.00;99.90
67273;DHT22;54190;49.770;9.250;2023-03-14T01:18:52;10.00;99.90
67273;DHT22;54190;49.770;9.250;2023-03-14T01:21:26;10.10;99.90
67273;DHT22;54190;49.770;9.250;2023-03-14T01:23:54;10.10;99.90
67273;DHT22;54190;49.770;9.250;2023-03-14T01:26:23;10.10;99.90
67273;DHT22;54190;49.770;9.250;2023-03-14T01:28:50;10.10;99.90
67273;DHT22;54190;49.770;9.250;2023-03-14T01:31:17;10.10;99.90
67273;DHT22;54190;49.770;9.250;2023-03-14T01:33:43;10.10;99.90
67273;DHT22;54190;49.770;9.250;2023-03-14T01:36:10;10.10;99.90
67273;DHT22;54190;49.770;9.250;2023-03-14T01:38:37;10.10;99.90
67273;DHT22;54190;49.770;9.250;2023-03-14T01:41:07;10.00;99.90
67273;DHT22;54190;49.770;9.250;2023-03-14T01:43:33;10.10;99.90
67273;DHT22;54190;49.770;9.250;2023-03-14T01:51:00;10.10;99.90
67273;DHT22;54190;49.770;9.250;2023-03-14T01:53:27;10.10;99.90
67273;DHT22;54190;49.770;9.250;2023-03-14T01:55:55;10.00;99.90
67273;DHT22;54190;49.770;9.250;2023-03-14T01:58:27;10.00;99.90
67273;DHT22;54190;49.770;9.250;2023-03-14T02:00:57;10.00;99.90
67273;DHT22;54190;49.770;9.250;2023-03-14T02:03:25;10.00;99.90
67273;DHT22;54190;49.770;9.250;2023-03-14T02:05:54;10.10;99.90
67273;DHT22;54190;49.770;9.250;2023-03-14T02:08:22;10.10;99.90
67273;DHT22;54190;49.770;9.250;2023-03-14T02:10:55;10.10;99.90
67273;DHT22;54190;49.770;9.250;2023-03-14T02:13:30;10.10;99.90
67273;DHT22;54190;49.770;9.250;2023-03-14T02:16:14;10.00;99.90
67273;DHT22;54190;49.770;9.250;2023-03-14T02:18:58;10.00;99.90
67273;DHT22;54190;49.770;9.250;2023-03-14T02:22:13;10.00;99.90
67273;DHT22;54190;49.770;9.250;2023-03-14T02:25:03;10.00;99.90
67273;DHT22;54190;49.770;9.250;2023-03-14T02:27:30;10.00;99.90
67273;DHT22;54190;49.770;9.250;2023-03-14T02:29:59;10.10;99.90
67273;DHT22;54190;49.770;9.250;2023-03-14T02:32:29;10.10;99.90
67273;DHT22;54190;49.770;9.250;2023-03-14T02:34:57;10.10;99.90
67273;DHT22;54190;49.770;9.250;2023-03-14T02:37:30;10.10;99.90
67273;DHT22;54190;49.770;9.250;2023-03-14T02:39:58;10.10;99.90
67273;DHT22;54190;49.770;9.250;2023-03-14T02:42:25;10.10;99.90
67273;DHT22;54190;49.770;9.250;2023-03-14T02:44:54;10.10;99.90
67273;DHT22;54190;49.770;9.250;2023-03-14T02:47:26;10.10;99.90
67273;DHT22;54190;49.770;9.250;2023-03-14T02:50:00;10.10;99.90
67273;DHT22;54190;49.770;9.250;2023-03-14T02:52:27;10.10;99.90
67273;DHT22;54190;49.770;9.250;2023-03-14T02:54:53;10.10;99.90
67273;DHT22;54190;49.770;9.250;2023-03-14T02:57:19;10.10;99.90
67273;DHT22;54190;49.770;9.250;2023-03-14T02:59:44;10.10;99.90
67273;DHT22;54190;49.770;9.250;2023-03-14T03:02:14;10.10;99.90
67273;DHT22;54190;49.770;9.250;2023-03-14T03:04:40;10.10;99.90
67273;DHT22;54190;49.770;9.250;2023-03-14T03:07:06;10.00;99.90
67273;DHT22;54190;49.770;9.250;2023-03-14T03:09:32;10.10;99.90
67273;DHT22;54190;49.770;9.250;2023-03-14T03:11:57;10.10;99.90
67273;DHT22;54190;49.770;9.250;2023-03-14T03:14:25;10.10;99.90
67273;DHT22;54190;49.770;9.250;2023-03-14T03:16:51;10.10;99.90
67273;DHT22;54190;49.770;9.250;2023-03-14T03:19:17;10.10;99.90
67273;DHT22;54190;49.770;9.250;2023-03-14T03:21:43;10.10;99.90
67273;DHT22;54190;49.770;9.250;2023-03-14T03:24:11;10.10;99.90
67273;DHT22;54190;49.770;9.250;2023-03-14T03:26:37;10.10;99.90
67273;DHT22;54190;49.770;9.250;2023-03-14T03:29:05;10.10;99.90
67273;DHT22;54190;49.770;9.250;2023-03-14T03:31:31;10.10;99.90
67273;DHT22;54190;49.770;9.250;2023-03-14T03:33:57;10.00;99.90
67273;DHT22;54190;49.770;9.250;2023-03-14T03:36:25;10.10;99.90
67273;DHT22;54190;49.770;9.250;2023-03-14T03:38:51;10.10;99.90
67273;DHT22;54190;49.770;9.250;2023-03-14T03:41:17;10.10;99.90
67273;DHT22;54190;49.770;9.250;2023-03-14T03:43:42;10.10;99.90
67273;DHT22;54190;49.770;9.250;2023-03-14T03:46:10;10.10;99.90
67273;DHT22;54190;49.770;9.250;2023-03-14T03:48:35;10.10;99.90
67273;DHT22;54190;49.770;9.250;2023-03-14T03:51:03;10.00;99.90
67273;DHT22;54190;49.770;9.250;2023-03-14T03:53:30;10.00;99.90
67273;DHT22;54190;49.770;9.250;2023-03-14T03:55:55;10.00;99.90
67273;DHT22;54190;49.770;9.250;2023-03-14T03:58:22;10.00;99.90
67273;DHT22;54190;49.770;9.250;2023-03-14T04:00:48;10.00;99.90
67273;DHT22;54190;49.770;9.250;2023-03-14T04:03:14;10.00;99.90
67273;DHT22;54190;49.770;9.250;2023-03-14T04:05:40;10.00;99.90
67273;DHT22;54190;49.770;9.250;2023-03-14T04:08:09;10.00;99.90
67273;DHT22;54190;49.770;9.250;2023-03-14T04:10:36;10.00;99.90
67273;DHT22;54190;49.770;9.250;2023-03-14T04:13:06;10.00;99.90
67273;DHT22;54190;49.770;9.250;2023-03-14T04:15:33;10.00;99.90
67273;DHT22;54190;49.770;9.250;2023-03-14T04:18:03;9.90;99.90
67273;DHT22;54190;49.770;9.250;2023-03-14T04:20:30;9.90;99.90
67273;DHT22;54190;49.770;9.250;2023-03-14T04:22:56;9.90;99.90
67273;DHT22;54190;49.770;9.250;2023-03-14T04:25:22;9.90;99.90
67273;DHT22;54190;49.770;9.250;2023-03-14T04:27:53;9.90;99.90
67273;DHT22;54190;49.770;9.250;2023-03-14T04:30:23;9.90;99.90
67273;DHT22;54190;49.770;9.250;2023-03-14T04:32:52;9.90;99.90
67273;DHT22;54190;49.770;9.250;2023-03-14T04:35:19;9.80;99.90
67273;DHT22;54190;49.770;9.250;2023-03-14T04:37:45;9.80;99.90
67273;DHT22;54190;49.770;9.250;2023-03-14T04:40:15;9.80;99.90
67273;DHT22;54190;49.770;9.250;2023-03-14T04:42:41;9.70;99.90
67273;DHT22;54190;49.770;9.250;2023-03-14T04:45:07;9.80;99.90
67273;DHT22;54190;49.770;9.250;2023-03-14T04:47:34;9.80;99.90
67273;DHT22;54190;49.770;9.250;2023-03-14T04:50:00;9.80;99.90
67273;DHT22;54190;49.770;9.250;2023-03-14T04:52:26;9.80;99.90
67273;DHT22;54190;49.770;9.250;2023-03-14T04:54:52;9.80;99.90
67273;DHT22;54190;49.770;9.250;2023-03-14T04:57:20;9.80;99.90
67273;DHT22;54190;49.770;9.250;2023-03-14T04:59:46;9.80;99.90
67273;DHT22;54190;49.770;9.250;2023-03-14T05:02:44;9.70;99.90
67273;DHT22;54190;49.770;9.250;2023-03-14T05:05:19;9.70;99.90
67273;DHT22;54190;49.770;9.250;2023-03-14T05:08:05;9.70;99.90
67273;DHT22;54190;49.770;9.250;2023-03-14T05:10:53;9.70;99.90
67273;DHT22;54190;49.770;9.250;2023-03-14T05:13:39;9.70;99.90
67273;DHT22;54190;49.770;9.250;2023-03-14T05:16:25;9.60;99.90
67273;DHT22;54190;49.770;9.250;2023-03-14T05:18:51;9.60;99.90
67273;DHT22;54190;49.770;9.250;2023-03-14T05:21:34;9.60;99.90
67273;DHT22;54190;49.770;9.250;2023-03-14T05:24:24;9.60;99.90
67273;DHT22;54190;49.770;9.250;2023-03-14T05:26:53;9.60;99.90
67273;DHT22;54190;49.770;9.250;2023-03-14T05:29:36;9.60;99.90
67273;DHT22;54190;49.770;9.250;2023-03-14T05:32:21;9.60;99.90
67273;DHT22;54190;49.770;9.250;2023-03-14T05:35:09;9.50;99.90
67273;DHT22;54190;49.770;9.250;2023-03-14T05:37:45;9.50;99.90
67273;DHT22;54190;49.770;9.250;2023-03-14T05:40:29;9.60;99.90
67273;DHT22;54190;49.770;9.250;2023-03-14T05:43:13;9.60;99.90
67273;DHT22;54190;49.770;9.250;2023-03-14T05:46:12;9.60;99.90
67273;DHT22;54190;49.770;9.250;2023-03-14T05:48:49;9.60;99.90
67273;DHT22;54190;49.770;9.250;2023-03-14T05:51:32;9.60;99.90
67273;DHT22;54190;49.770;9.250;2023-03-14T05:54:05;9.70;99.90
67273;DHT22;54190;49.770;9.250;2023-03-14T05:56:47;9.70;99.90
67273;DHT22;54190;49.770;9.250;2023-03-14T05:59:36;9.70;99.90
67273;DHT22;54190;49.770;9.250;2023-03-14T06:02:20;9.80;99.90
67273;DHT22;54190;49.770;9.250;2023-03-14T06:04:56;9.80;99.90
67273;DHT22;54190;49.770;9.250;2023-03-14T06:07:21;9.70;99.90
67273;DHT22;54190;49.770;9.250;2023-03-14T06:09:47;9.90;99.90
67273;DHT22;54190;49.770;9.250;2023-03-14T06:12:15;9.80;99.90
67273;DHT22;54190;49.770;9.250;2023-03-14T06:14:44;9.80;99.90
67273;DHT22;54190;49.770;9.250;2023-03-14T06:17:10;9.80;99.90
67273;DHT22;54190;49.770;9.250;2023-03-14T06:19:43;9.80;99.90
67273;DHT22;54190;49.770;9.250;2023-03-14T06:22:11;9.80;99.90
67273;DHT22;54190;49.770;9.250;2023-03-14T06:24:37;9.80;99.90
67273;DHT22;54190;49.770;9.250;2023-03-14T06:27:03;9.80;99.90
67273;DHT22;54190;49.770;9.250;2023-03-14T06:29:29;9.80;99.90
67273;DHT22;54190;49.770;9.250;2023-03-14T06:31:56;9.80;99.90
67273;DHT22;54190;49.770;9.250;2023-03-14T06:34:21;9.80;99.90
67273;DHT22;54190;49.770;9.250;2023-03-14T06:36:47;9.90;99.90
67273;DHT22;54190;49.770;9.250;2023-03-14T06:39:13;9.90;99.90
67273;DHT22;54190;49.770;9.250;2023-03-14T06:41:43;9.90;99.90
67273;DHT22;54190;49.770;9.250;2023-03-14T06:44:09;9.90;99.90
67273;DHT22;54190;49.770;9.250;2023-03-14T06:46:35;9.90;99.90
67273;DHT22;54190;49.770;9.250;2023-03-14T06:49:01;9.90;99.90
67273;DHT22;54190;49.770;9.250;2023-03-14T06:51:26;9.90;99.90
67273;DHT22;54190;49.770;9.250;2023-03-14T06:53:53;10.00;99.90
67273;DHT22;54190;49.770;9.250;2023-03-14T06:56:21;10.00;99.90
67273;DHT22;54190;49.770;9.250;2023-03-14T06:58:47;9.90;99.90
67273;DHT22;54190;49.770;9.250;2023-03-14T07:01:31;10.00;99.90
67273;DHT22;54190;49.770;9.250;2023-03-14T07:04:06;10.00;99.90
67273;DHT22;54190;49.770;9.250;2023-03-14T07:06:33;10.00;99.90
67273;DHT22;54190;49.770;9.250;2023-03-14T07:08:59;10.00;99.90
67273;DHT22;54190;49.770;9.250;2023-03-14T07:11:26;10.00;99.90
67273;DHT22;54190;49.770;9.250;2023-03-14T07:13:51;10.00;99.90
67273;DHT22;54190;49.770;9.250;2023-03-14T07:16:17;10.00;99.90
67273;DHT22;54190;49.770;9.250;2023-03-14T07:18:43;10.10;99.90
67273;DHT22;54190;49.770;9.250;2023-03-14T07:21:09;10.00;99.90
67273;DHT22;54190;49.770;9.250;2023-03-14T07:23:36;10.10;99.90
67273;DHT22;54190;49.770;9.250;2023-03-14T07:26:02;10.10;99.90
67273;DHT22;54190;49.770;9.250;2023-03-14T07:28:30;10.10;99.90
67273;DHT22;54190;49.770;9.250;2023-03-14T07:31:03;10.00;99.90
67273;DHT22;54190;49.770;9.250;2023-03-14T07:33:31;10.00;99.90
67273;DHT22;54190;49.770;9.250;2023-03-14T07:35:57;10.10;99.90
67273;DHT22;54190;49.770;9.250;2023-03-14T07:38:23;10.10;99.90
67273;DHT22;54190;49.770;9.250;2023-03-14T07:41:06;10.00;99.90
67273;DHT22;54190;49.770;9.250;2023-03-14T07:43:34;10.00;99.90
67273;DHT22;54190;49.770;9.250;2023-03-14T07:46:00;10.00;99.90
67273;DHT22;54190;49.770;9.250;2023-03-14T07:48:26;10.00;99.90
67273;DHT22;54190;49.770;9.250;2023-03-14T07:50:54;10.00;99.90
67273;DHT22;54190;49.770;9.250;2023-03-14T07:53:20;10.00;99.90
67273;DHT22;54190;49.770;9.250;2023-03-14T07:55:47;10.00;99.90
67273;DHT22;54190;49.770;9.250;2023-03-14T07:58:13;10.00;99.90
67273;DHT22;54190;49.770;9.250;2023-03-14T08:00:39;10.00;99.90
67273;DHT22;54190;49.770;9.250;2023-03-14T08:03:05;9.90;99.90
67273;DHT22;54190;49.770;9.250;2023-03-14T08:05:30;9.90;99.90
67273;DHT22;54190;49.770;9.250;2023-03-14T08:07:59;10.00;99.90
67273;DHT22;54190;49.770;9.250;2023-03-14T08:10:24;9.90;99.90
67273;DHT22;54190;49.770;9.250;2023-03-14T08:12:53;9.90;99.90
67273;DHT22;54190;49.770;9.250;2023-03-14T08:15:20;9.90;99.90
67273;DHT22;54190;49.770;9.250;2023-03-14T08:17:46;9.90;99.90
67273;DHT22;54190;49.770;9.250;2023-03-14T08:20:20;9.90;99.90
67273;DHT22;54190;49.770;9.250;2023-03-14T08:22:46;9.90;99.90
67273;DHT22;54190;49.770;9.250;2023-03-14T08:25:12;9.90;99.90
67273;DHT22;54190;49.770;9.250;2023-03-14T08:27:38;10.00;99.90
67273;DHT22;54190;49.770;9.250;2023-03-14T08:30:10;10.00;99.90
67273;DHT22;54190;49.770;9.250;2023-03-14T08:32:36;10.00;99.90
67273;DHT22;54190;49.770;9.250;2023-03-14T08:35:03;10.00;99.90
67273;DHT22;54190;49.770;9.250;2023-03-14T08:37:31;10.00;99.90
67273;DHT22;54190;49.770;9.250;2023-03-14T08:39:57;10.00;99.90
67273;DHT22;54190;49.770;9.250;2023-03-14T08:42:22;10.00;99.90
67273;DHT22;54190;49.770;9.250;2023-03-14T08:44:50;10.00;99.90
67273;DHT22;54190;49.770;9.250;2023-03-14T08:47:16;10.00;99.90
67273;DHT22;54190;49.770;9.250;2023-03-14T08:49:41;10.00;99.90
67273;DHT22;54190;49.770;9.250;2023-03-14T08:52:07;10.00;99.90
67273;DHT22;54190;49.770;9.250;2023-03-14T08:54:33;10.00;99.90
67273;DHT22;54190;49.770;9.250;2023-03-14T08:56:59;10.00;99.90
67273;DHT22;54190;49.770;9.250;2023-03-14T08:59:24;10.00;99.90
67273;DHT22;54190;49.770;9.250;2023-03-14T09:01:50;10.00;99.90
67273;DHT22;54190;49.770;9.250;2023-03-14T09:04:16;10.00;99.90
67273;DHT22;54190;49.770;9.250;2023-03-14T09:06:42;10.00;99.90
67273;DHT22;54190;49.770;9.250;2023-03-14T09:09:08;10.00;99.90
67273;DHT22;54190;49.770;9.250;2023-03-14T09:11:34;10.00;99.90
67273;DHT22;54190;49.770;9.250;2023-03-14T09:14:00;10.00;99.90
67273;DHT22;54190;49.770;9.250;2023-03-14T09:16:26;10.00;99.90
67273;DHT22;54190;49.770;9.250;2023-03-14T09:18:51;10.00;99.90
67273;DHT22;54190;49.770;9.250;2023-03-14T09:21:21;10.00;99.90
67273;DHT22;54190;49.770;9.250;2023-03-14T09:23:47;10.00;99.90
67273;DHT22;54190;49.770;9.250;2023-03-14T09:26:13;10.00;99.90
67273;DHT22;54190;49.770;9.250;2023-03-14T09:28:38;10.00;99.90
67273;DHT22;54190;49.770;9.250;2023-03-14T09:31:09;10.00;99.90
67273;DHT22;54190;49.770;9.250;2023-03-14T09:33:36;10.00;99.90
67273;DHT22;54190;49.770;9.250;2023-03-14T09:36:02;10.00;99.90
67273;DHT22;54190;49.770;9.250;2023-03-14T09:38:28;10.10;99.90
67273;DHT22;54190;49.770;9.250;2023-03-14T09:40:55;10.10;99.90
67273;DHT22;54190;49.770;9.250;2023-03-14T09:43:22;10.10;99.90
67273;DHT22;54190;49.770;9.250;2023-03-14T09:45:50;10.20;99.90
67273;DHT22;54190;49.770;9.250;2023-03-14T09:48:20;10.20;99.90
67273;DHT22;54190;49.770;9.250;2023-03-14T09:50:49;10.20;99.90
67273;DHT22;54190;49.770;9.250;2023-03-14T09:53:21;10.30;99.90
67273;DHT22;54190;49.770;9.250;2023-03-14T09:55:50;10.30;99.90
67273;DHT22;54190;49.770;9.250;2023-03-14T09:58:19;10.30;99.90
67273;DHT22;54190;49.770;9.250;2023-03-14T10:00:45;10.30;99.90
67273;DHT22;54190;49.770;9.250;2023-03-14T10:05:37;10.40;99.90
67273;DHT22;54190;49.770;9.250;2023-03-14T10:08:03;10.40;99.90
67273;DHT22;54190;49.770;9.250;2023-03-14T10:10:29;10.50;99.90
67273;DHT22;54190;49.770;9.250;2023-03-14T10:12:57;10.50;99.90
67273;DHT22;54190;49.770;9.250;2023-03-14T10:15:33;10.50;99.90
67273;DHT22;54190;49.770;9.250;2023-03-14T10:18:02;10.60;99.90
67273;DHT22;54190;49.770;9.250;2023-03-14T10:20:36;10.60;99.90
67273;DHT22;54190;49.770;9.250;2023-03-14T10:23:07;10.60;99.90
67273;DHT22;54190;49.770;9.250;2023-03-14T10:25:46;10.60;99.90
67273;DHT22;54190;49.770;9.250;2023-03-14T10:31:26;10.60;99.90
67273;DHT22;54190;49.770;9.250;2023-03-14T10:34:00;10.60;99.90
67273;DHT22;54190;49.770;9.250;2023-03-14T10:36:31;10.70;99.90
67273;DHT22;54190;49.770;9.250;2023-03-14T10:42:20;10.60;99.90
67273;DHT22;54190;49.770;9.250;2023-03-14T10:44:51;10.50;99.90
67273;DHT22;54190;49.770;9.250;2023-03-14T10:47:23;10.60;99.90
67273;DHT22;54190;49.770;9.250;2023-03-14T10:49:49;10.50;99.90
67273;DHT22;54190;49.770;9.250;2023-03-14T10:52:27;10.50;99.90
67273;DHT22;54190;49.770;9.250;2023-03-14T10:55:01;10.40;99.90
67273;DHT22;54190;49.770;9.250;2023-03-14T10:57:28;10.40;99.90
67273;DHT22;54190;49.770;9.250;2023-03-14T10:59:55;10.30;99.90
67273;DHT22;54190;49.770;9.250;2023-03-14T11:07:46;10.10;99.90
67273;DHT22;54190;49.770;9.250;2023-03-14T11:10:26;10.00;99.90
67273;DHT22;54190;49.770;9.250;2023-03-14T11:29:28;9.90;99.90
67273;DHT22;54190;49.770;9.250;2023-03-14T11:32:01;9.80;99.90
67273;DHT22;54190;49.770;9.250;2023-03-14T11:34:28;9.80;99.90
67273;DHT22;54190;49.770;9.250;2023-03-14T11:37:10;9.90;99.90
67273;DHT22;54190;49.770;9.250;2023-03-14T11:39:44;9.80;99.90
67273;DHT22;54190;49.770;9.250;2023-03-14T11:42:14;9.90;99.90
67273;DHT22;54190;49.770;9.250;2023-03-14T11:44:45;9.90;99.90
67273;DHT22;54190;49.770;9.250;2023-03-14T11:47:37;9.90;99.90
67273;DHT22;54190;49.770;9.250;2023-03-14T11:50:21;9.90;99.90
67273;DHT22;54190;49.770;9.250;2023-03-14T11:55:39;9.80;99.90
67273;DHT22;54190;49.770;9.250;2023-03-14T11:58:25;9.80;99.90
67273;DHT22;54190;49.770;9.250;2023-03-14T12:00:54;9.80;99.90
67273;DHT22;54190;49.770;9.250;2023-03-14T12:08:43;9.80;99.90
67273;DHT22;54190;49.770;9.250;2023-03-14T12:13:40;9.80;99.90
67273;DHT22;54190;49.770;9.250;2023-03-14T12:18:50;9.80;99.90
67273;DHT22;54190;49.770;9.250;2023-03-14T12:21:15;9.80;99.90
67273;DHT22;54190;49.770;9.250;2023-03-14T12:28:37;9.80;99.90
67273;DHT22;54190;49.770;9.250;2023-03-14T12:42:04;9.80;99.90
67273;DHT22;54190;49.770;9.250;2023-03-14T12:47:00;9.80;99.90
67273;DHT22;54190;49.770;9.250;2023-03-14T12:49:33;9.80;99.90
67273;DHT22;54190;49.770;9.250;2023-03-14T12:52:16;9.80;99.90
67273;DHT22;54190;49.770;9.250;2023-03-14T12:57:33;9.80;99.90
67273;DHT22;54190;49.770;9.250;2023-03-14T13:00:29;9.70;99.90
67273;DHT22;54190;49.770;9.250;2023-03-14T13:02:50;9.60;99.90
67273;DHT22;54190;49.770;9.250;2023-03-14T13:05:21;9.50;99.90
67273;DHT22;54190;49.770;9.250;2023-03-14T13:13:02;9.30;99.90
67273;DHT22;54190;49.770;9.250;2023-03-14T13:15:37;9.20;99.90
67273;DHT22;54190;49.770;9.250;2023-03-14T13:18:12;9.10;99.90
67273;DHT22;54190;49.770;9.250;2023-03-14T13:20:48;9.10;99.90
67273;DHT22;54190;49.770;9.250;2023-03-14T13:23:30;8.90;99.90
67273;DHT22;54190;49.770;9.250;2023-03-14T13:25:57;8.80;99.90
67273;DHT22;54190;49.770;9.250;2023-03-14T13:28:23;8.80;99.90
67273;DHT22;54190;49.770;9.250;2023-03-14T13:30:54;8.80;99.90
67273;DHT22;54190;49.770;9.250;2023-03-14T13:33:22;8.80;99.90
67273;DHT22;54190;49.770;9.250;2023-03-14T13:36:05;8.70;99.90
67273;DHT22;54190;49.770;9.250;2023-03-14T13:38:34;8.70;99.90
67273;DHT22;54190;49.770;9.250;2023-03-14T13:41:03;8.70;99.90
67273;DHT22;54190;49.770;9.250;2023-03-14T13:43:40;8.80;99.90
67273;DHT22;54190;49.770;9.250;2023-03-14T13:46:12;8.80;99.90
67273;DHT22;54190;49.770;9.250;2023-03-14T13:48:55;8.80;99.90
67273;DHT22;54190;49.770;9.250;2023-03-14T13:51:22;8.70;99.90
67273;DHT22;54190;49.770;9.250;2023-03-14T13:53:53;8.70;99.90
67273;DHT22;54190;49.770;9.250;2023-03-14T13:56:20;8.70;99.90
67273;DHT22;54190;49.770;9.250;2023-03-14T13:58:47;8.70;99.90
67273;DHT22;54190;49.770;9.250;2023-03-14T14:01:27;8.70;99.90
67273;DHT22;54190;49.770;9.250;2023-03-14T14:03:57;8.60;99.90
67273;DHT22;54190;49.770;9.250;2023-03-14T14:06:31;8.50;99.90
67273;DHT22;54190;49.770;9.250;2023-03-14T14:08:59;8.50;99.90
67273;DHT22;54190;49.770;9.250;2023-03-14T14:11:42;8.40;99.90
67273;DHT22;54190;49.770;9.250;2023-03-14T14:14:13;8.30;99.90
67273;DHT22;54190;49.770;9.250;2023-03-14T14:16:40;8.20;99.90
67273;DHT22;54190;49.770;9.250;2023-03-14T14:19:07;8.10;99.90
67273;DHT22;54190;49.770;9.250;2023-03-14T14:21:32;8.00;99.90
67273;DHT22;54190;49.770;9.250;2023-03-14T14:23:59;7.90;99.90
67273;DHT22;54190;49.770;9.250;2023-03-14T14:26:26;7.80;99.90
67273;DHT22;54190;49.770;9.250;2023-03-14T14:29:03;7.70;99.90
67273;DHT22;54190;49.770;9.250;2023-03-14T14:31:28;7.60;99.90
67273;DHT22;54190;49.770;9.250;2023-03-14T14:39:25;7.40;99.90
67273;DHT22;54190;49.770;9.250;2023-03-14T14:41:52;7.30;99.90
67273;DHT22;54190;49.770;9.250;2023-03-14T14:44:28;7.30;99.90
67273;DHT22;54190;49.770;9.250;2023-03-14T14:46:55;7.20;99.90
67273;DHT22;54190;49.770;9.250;2023-03-14T14:49:31;7.20;99.90
67273;DHT22;54190;49.770;9.250;2023-03-14T14:52:10;7.20;99.90
67273;DHT22;54190;49.770;9.250;2023-03-14T14:55:00;7.20;99.90
67273;DHT22;54190;49.770;9.250;2023-03-14T14:57:28;7.30;99.90
67273;DHT22;54190;49.770;9.250;2023-03-14T15:00:00;7.30;99.90
67273;DHT22;54190;49.770;9.250;2023-03-14T15:04:58;7.40;99.90
67273;DHT22;54190;49.770;9.250;2023-03-14T15:07:24;7.40;99.90
67273;DHT22;54190;49.770;9.250;2023-03-14T15:09:50;7.40;99.90
67273;DHT22;54190;49.770;9.250;2023-03-14T15:12:15;7.40;99.90
67273;DHT22;54190;49.770;9.250;2023-03-14T15:14:41;7.40;99.90
67273;DHT22;54190;49.770;9.250;2023-03-14T15:17:10;7.40;99.90
67273;DHT22;54190;49.770;9.250;2023-03-14T15:19:37;7.30;99.90
67273;DHT22;54190;49.770;9.250;2023-03-14T15:22:03;7.30;99.90
67273;DHT22;54190;49.770;9.250;2023-03-14T15:24:28;7.30;99.90
67273;DHT22;54190;49.770;9.250;2023-03-14T15:26:54;7.30;99.90
67273;DHT22;54190;49.770;9.250;2023-03-14T15:29:20;7.30;99.90
67273;DHT22;54190;49.770;9.250;2023-03-14T15:31:45;7.30;99.90
67273;DHT22;54190;49.770;9.250;2023-03-14T15:34:11;7.30;99.90
67273;DHT22;54190;49.770;9.250;2023-03-14T15:36:37;7.30;99.90
67273;DHT22;54190;49.770;9.250;2023-03-14T15:39:05;7.30;99.90
67273;DHT22;54190;49.770;9.250;2023-03-14T15:41:31;7.40;99.90
67273;DHT22;54190;49.770;9.250;2023-03-14T15:43:57;7.40;99.90
67273;DHT22;54190;49.770;9.250;2023-03-14T15:46:23;7.40;99.90
67273;DHT22;54190;49.770;9.250;2023-03-14T15:48:50;7.40;99.90
67273;DHT22;54190;49.770;9.250;2023-03-14T15:51:16;7.40;99.90
67273;DHT22;54190;49.770;9.250;2023-03-14T15:53:42;7.40;99.90
67273;DHT22;54190;49.770;9.250;2023-03-14T15:56:27;7.30;99.90
67273;DHT22;54190;49.770;9.250;2023-03-14T15:58:56;7.30;99.90
67273;DHT22;54190;49.770;9.250;2023-03-14T16:01:22;7.30;99.90
67273;DHT22;54190;49.770;9.250;2023-03-14T16:03:47;7.30;99.90
67273;DHT22;54190;49.770;9.250;2023-03-14T16:06:14;7.20;99.90
67273;DHT22;54190;49.770;9.250;2023-03-14T16:08:40;7.20;99.90
67273;DHT22;54190;49.770;9.250;2023-03-14T16:11:10;7.20;99.90
67273;DHT22;54190;49.770;9.250;2023-03-14T16:13:36;7.20;99.90
67273;DHT22;54190;49.770;9.250;2023-03-14T16:16:04;7.10;99.90
67273;DHT22;54190;49.770;9.250;2023-03-14T16:18:32;6.90;99.90
67273;DHT22;54190;49.770;9.250;2023-03-14T16:21:01;6.70;99.90
67273;DHT22;54190;49.770;9.250;2023-03-14T16:23:27;6.40;99.90
67273;DHT22;54190;49.770;9.250;2023-03-14T16:25:54;6.30;99.90
67273;DHT22;54190;49.770;9.250;2023-03-14T16:28:20;6.30;99.90
67273;DHT22;54190;49.770;9.250;2023-03-14T16:30:46;6.30;99.90
67273;DHT22;54190;49.770;9.250;2023-03-14T16:33:13;6.30;99.90
67273;DHT22;54190;49.770;9.250;2023-03-14T16:35:39;6.20;99.90
67273;DHT22;54190;49.770;9.250;2023-03-14T16:38:05;6.10;99.90
67273;DHT22;54190;49.770;9.250;2023-03-14T16:40:31;6.20;99.90
67273;DHT22;54190;49.770;9.250;2023-03-14T16:42:57;6.10;99.90
67273;DHT22;54190;49.770;9.250;2023-03-14T16:45:23;6.10;99.90
67273;DHT22;54190;49.770;9.250;2023-03-14T16:47:49;6.10;99.90
67273;DHT22;54190;49.770;9.250;2023-03-14T16:50:14;6.00;99.90
67273;DHT22;54190;49.770;9.250;2023-03-14T16:52:40;6.10;99.90
67273;DHT22;54190;49.770;9.250;2023-03-14T16:55:06;6.00;99.90
67273;DHT22;54190;49.770;9.250;2023-03-14T16:57:33;6.10;99.90
67273;DHT22;54190;49.770;9.250;2023-03-14T16:59:58;6.00;99.90
67273;DHT22;54190;49.770;9.250;2023-03-14T17:02:24;6.00;99.90
67273;DHT22;54190;49.770;9.250;2023-03-14T17:04:50;6.00;99.90
67273;DHT22;54190;49.770;9.250;2023-03-14T17:07:16;6.10;99.90
67273;DHT22;54190;49.770;9.250;2023-03-14T17:09:41;6.00;99.90
67273;DHT22;54190;49.770;9.250;2023-03-14T17:12:07;6.00;99.90
67273;DHT22;54190;49.770;9.250;2023-03-14T17:14:33;5.90;99.90
67273;DHT22;54190;49.770;9.250;2023-03-14T17:16:58;5.80;99.90